sensor_id;sensor_type;location;lat;lon;timestamp;P1;durP1;ratioP1;P2;durP2;ratioP2
5650;SDS011;40241;52.684;9.758;2023-04-01T00:01:09;0.90;;;0.70;;
5650;SDS011;40241;52.684;9.758;2023-04-01T00:03:38;1.30;;;0.80;;
5650;SDS011;40241;52.684;9.758;2023-04-01T00:06:04;1.70;;;0.70;;
5650;SDS011;40241;52.684;9.758;2023-04-01T00:08:29;1.00;;;0.90;;
5650;SDS011;40241;52.684;9.758;2023-04-01T00:10:55;1.77;;;0.90;;
5650;SDS011;40241;52.684;9.758;2023-04-01T00:13:22;1.67;;;0.87;;
5650;SDS011;40241;52.684;9.758;2023-04-01T00:15:48;0.97;;;0.70;;
5650;SDS011;40241;52.684;9.758;2023-04-01T00:18:13;3.23;;;0.73;;
5650;SDS011;40241;52.684;9.758;2023-04-01T00:20:39;5.60;;;0.90;;
5650;SDS011;40241;52.684;9.758;2023-04-01T00:23:09;3.20;;;0.93;;
5650;SDS011;40241;52.684;9.758;2023-04-01T00:25:34;1.37;;;0.80;;
5650;SDS011;40241;52.684;9.758;2023-04-01T00:27:59;1.70;;;0.60;;
5650;SDS011;40241;52.684;9.758;2023-04-01T00:30:25;6.03;;;0.70;;
5650;SDS011;40241;52.684;9.758;2023-04-01T00:32:53;0.90;;;0.70;;
5650;SDS011;40241;52.684;9.758;2023-04-01T00:35:18;2.10;;;1.10;;
5650;SDS011;40241;52.684;9.758;2023-04-01T00:37:44;1.57;;;0.60;;
5650;SDS011;40241;52.684;9.758;2023-04-01T00:40:22;2.60;;;0.77;;
5650;SDS011;40241;52.684;9.758;2023-04-01T00:42:50;0.90;;;0.70;;
5650;SDS011;40241;52.684;9.758;2023-04-01T00:45:33;0.90;;;0.70;;
5650;SDS011;40241;52.684;9.758;2023-04-01T00:48:06;1.70;;;0.60;;
5650;SDS011;40241;52.684;9.758;2023-04-01T00:50:35;1.50;;;0.83;;
5650;SDS011;40241;52.684;9.758;2023-04-01T00:53:02;2.60;;;0.67;;
5650;SDS011;40241;52.684;9.758;2023-04-01T00:55:28;2.93;;;0.90;;
5650;SDS011;40241;52.684;9.758;2023-04-01T00:57:55;1.10;;;0.87;;
5650;SDS011;40241;52.684;9.758;2023-04-01T01:00:23;0.87;;;0.80;;
5650;SDS011;40241;52.684;9.758;2023-04-01T01:02:49;1.27;;;0.80;;
5650;SDS011;40241;52.684;9.758;2023-04-01T01:05:15;2.50;;;0.80;;
5650;SDS011;40241;52.684;9.758;2023-04-01T01:10:20;1.00;;;0.57;;
5650;SDS011;40241;52.684;9.758;2023-04-01T01:27:07;1.03;;;0.80;;
5650;SDS011;40241;52.684;9.758;2023-04-01T01:32:53;3.13;;;0.93;;
5650;SDS011;40241;52.684;9.758;2023-04-01T01:38:12;0.60;;;0.60;;
5650;SDS011;40241;52.684;9.758;2023-04-01T01:40:41;2.27;;;1.10;;
5650;SDS011;40241;52.684;9.758;2023-04-01T01:43:10;1.13;;;0.73;;
5650;SDS011;40241;52.684;9.758;2023-04-01T01:45:40;1.10;;;0.90;;
5650;SDS011;40241;52.684;9.758;2023-04-01T01:48:10;2.03;;;0.70;;
5650;SDS011;40241;52.684;9.758;2023-04-01T01:50:36;0.90;;;0.90;;
5650;SDS011;40241;52.684;9.758;2023-04-01T01:53:07;1.73;;;0.70;;
5650;SDS011;40241;52.684;9.758;2023-04-01T01:55:40;1.53;;;1.07;;
5650;SDS011;40241;52.684;9.758;2023-04-01T02:00:35;0.80;;;0.63;;
5650;SDS011;40241;52.684;9.758;2023-04-01T02:03:01;0.97;;;0.87;;
5650;SDS011;40241;52.684;9.758;2023-04-01T02:05:27;3.70;;;0.90;;
5650;SDS011;40241;52.684;9.758;2023-04-01T02:07:57;1.03;;;0.70;;
5650;SDS011;40241;52.684;9.758;2023-04-01T02:10:28;1.57;;;0.80;;
5650;SDS011;40241;52.684;9.758;2023-04-01T02:12:59;2.07;;;1.03;;
5650;SDS011;40241;52.684;9.758;2023-04-01T02:15:31;1.53;;;0.97;;
5650;SDS011;40241;52.684;9.758;2023-04-01T02:18:02;1.87;;;0.73;;
5650;SDS011;40241;52.684;9.758;2023-04-01T02:20:29;2.50;;;0.93;;
5650;SDS011;40241;52.684;9.758;2023-04-01T02:22:55;3.57;;;0.80;;
5650;SDS011;40241;52.684;9.758;2023-04-01T02:25:26;1.20;;;0.70;;
5650;SDS011;40241;52.684;9.758;2023-04-01T02:27:58;0.87;;;0.80;;
5650;SDS011;40241;52.684;9.758;2023-04-01T02:30:26;3.63;;;1.10;;
5650;SDS011;40241;52.684;9.758;2023-04-01T02:32:54;1.20;;;0.90;;
5650;SDS011;40241;52.684;9.758;2023-04-01T02:35:21;2.77;;;1.00;;
5650;SDS011;40241;52.684;9.758;2023-04-01T02:37:48;0.80;;;0.73;;
5650;SDS011;40241;52.684;9.758;2023-04-01T02:40:15;0.83;;;0.83;;
5650;SDS011;40241;52.684;9.758;2023-04-01T02:42:42;1.70;;;0.87;;
5650;SDS011;40241;52.684;9.758;2023-04-01T02:45:08;0.70;;;0.70;;
5650;SDS011;40241;52.684;9.758;2023-04-01T02:47:34;3.13;;;1.00;;
5650;SDS011;40241;52.684;9.758;2023-04-01T02:49:59;1.67;;;0.77;;
5650;SDS011;40241;52.684;9.758;2023-04-01T02:52:25;1.10;;;0.93;;
5650;SDS011;40241;52.684;9.758;2023-04-01T02:54:51;1.93;;;0.90;;
5650;SDS011;40241;52.684;9.758;2023-04-01T02:57:16;0.77;;;0.77;;
5650;SDS011;40241;52.684;9.758;2023-04-01T02:59:42;0.70;;;0.70;;
5650;SDS011;40241;52.684;9.758;2023-04-01T03:02:07;1.33;;;0.83;;
5650;SDS011;40241;52.684;9.758;2023-04-01T03:04:33;2.20;;;0.70;;
5650;SDS011;40241;52.684;9.758;2023-04-01T03:06:58;1.10;;;0.83;;
5650;SDS011;40241;52.684;9.758;2023-04-01T03:09:24;1.67;;;0.67;;
5650;SDS011;40241;52.684;9.758;2023-04-01T03:11:49;2.93;;;0.70;;
5650;SDS011;40241;52.684;9.758;2023-04-01T03:14:14;0.50;;;0.50;;
5650;SDS011;40241;52.684;9.758;2023-04-01T03:16:40;4.10;;;0.70;;
5650;SDS011;40241;52.684;9.758;2023-04-01T03:19:05;0.70;;;0.53;;
5650;SDS011;40241;52.684;9.758;2023-04-01T03:21:30;0.50;;;0.50;;
5650;SDS011;40241;52.684;9.758;2023-04-01T03:23:56;1.00;;;0.60;;
5650;SDS011;40241;52.684;9.758;2023-04-01T03:26:21;1.20;;;0.60;;
5650;SDS011;40241;52.684;9.758;2023-04-01T03:28:47;3.93;;;0.70;;
5650;SDS011;40241;52.684;9.758;2023-04-01T03:31:13;0.77;;;0.77;;
5650;SDS011;40241;52.684;9.758;2023-04-01T03:33:39;0.60;;;0.57;;
5650;SDS011;40241;52.684;9.758;2023-04-01T03:36:05;0.70;;;0.70;;
5650;SDS011;40241;52.684;9.758;2023-04-01T03:38:32;1.07;;;0.90;;
5650;SDS011;40241;52.684;9.758;2023-04-01T03:40:58;0.80;;;0.50;;
5650;SDS011;40241;52.684;9.758;2023-04-01T03:43:24;0.70;;;0.50;;
5650;SDS011;40241;52.684;9.758;2023-04-01T03:45:50;1.20;;;0.60;;
5650;SDS011;40241;52.684;9.758;2023-04-01T03:48:16;1.03;;;0.77;;
5650;SDS011;40241;52.684;9.758;2023-04-01T03:50:43;1.07;;;0.63;;
5650;SDS011;40241;52.684;9.758;2023-04-01T03:53:09;0.90;;;0.60;;
5650;SDS011;40241;52.684;9.758;2023-04-01T03:55:37;0.60;;;0.50;;
5650;SDS011;40241;52.684;9.758;2023-04-01T03:58:04;0.60;;;0.50;;
5650;SDS011;40241;52.684;9.758;2023-04-01T04:00:30;0.80;;;0.70;;
5650;SDS011;40241;52.684;9.758;2023-04-01T04:02:56;1.23;;;0.53;;
5650;SDS011;40241;52.684;9.758;2023-04-01T04:05:22;2.20;;;0.60;;
5650;SDS011;40241;52.684;9.758;2023-04-01T04:07:48;0.80;;;0.40;;
5650;SDS011;40241;52.684;9.758;2023-04-01T04:10:13;0.77;;;0.60;;
5650;SDS011;40241;52.684;9.758;2023-04-01T04:12:38;0.60;;;0.50;;
5650;SDS011;40241;52.684;9.758;2023-04-01T04:15:05;0.90;;;0.43;;
5650;SDS011;40241;52.684;9.758;2023-04-01T04:17:31;0.50;;;0.47;;
5650;SDS011;40241;52.684;9.758;2023-04-01T04:19:56;0.60;;;0.60;;
5650;SDS011;40241;52.684;9.758;2023-04-01T04:22:22;2.10;;;0.70;;
5650;SDS011;40241;52.684;9.758;2023-04-01T04:24:47;2.10;;;0.60;;
5650;SDS011;40241;52.684;9.758;2023-04-01T04:27:12;0.70;;;0.50;;
5650;SDS011;40241;52.684;9.758;2023-04-01T04:29:38;1.17;;;0.50;;
5650;SDS011;40241;52.684;9.758;2023-04-01T04:32:03;0.63;;;0.47;;
5650;SDS011;40241;52.684;9.758;2023-04-01T04:34:29;1.10;;;0.50;;
5650;SDS011;40241;52.684;9.758;2023-04-01T04:36:54;0.50;;;0.40;;
5650;SDS011;40241;52.684;9.758;2023-04-01T04:39:19;2.73;;;0.80;;
5650;SDS011;40241;52.684;9.758;2023-04-01T04:41:45;0.50;;;0.40;;
5650;SDS011;40241;52.684;9.758;2023-04-01T04:44:10;0.90;;;0.57;;
5650;SDS011;40241;52.684;9.758;2023-04-01T04:46:35;0.53;;;0.53;;
5650;SDS011;40241;52.684;9.758;2023-04-01T04:49:02;0.90;;;0.50;;
5650;SDS011;40241;52.684;9.758;2023-04-01T04:51:27;1.43;;;0.40;;
5650;SDS011;40241;52.684;9.758;2023-04-01T04:53:52;1.07;;;0.50;;
5650;SDS011;40241;52.684;9.758;2023-04-01T04:56:18;1.10;;;0.50;;
5650;SDS011;40241;52.684;9.758;2023-04-01T04:58:45;0.73;;;0.67;;
5650;SDS011;40241;52.684;9.758;2023-04-01T05:01:12;0.50;;;0.50;;
5650;SDS011;40241;52.684;9.758;2023-04-01T05:03:40;2.30;;;0.50;;
5650;SDS011;40241;52.684;9.758;2023-04-01T05:06:07;0.60;;;0.57;;
5650;SDS011;40241;52.684;9.758;2023-04-01T05:08:34;1.47;;;1.13;;
5650;SDS011;40241;52.684;9.758;2023-04-01T05:11:00;1.67;;;0.73;;
5650;SDS011;40241;52.684;9.758;2023-04-01T05:13:26;1.97;;;0.50;;
5650;SDS011;40241;52.684;9.758;2023-04-01T05:15:52;0.80;;;0.60;;
5650;SDS011;40241;52.684;9.758;2023-04-01T05:18:17;4.63;;;0.70;;
5650;SDS011;40241;52.684;9.758;2023-04-01T05:20:47;0.80;;;0.50;;
5650;SDS011;40241;52.684;9.758;2023-04-01T05:23:16;1.27;;;0.63;;
5650;SDS011;40241;52.684;9.758;2023-04-01T05:25:42;1.53;;;0.90;;
5650;SDS011;40241;52.684;9.758;2023-04-01T05:28:07;1.13;;;0.60;;
5650;SDS011;40241;52.684;9.758;2023-04-01T05:30:33;0.67;;;0.50;;
5650;SDS011;40241;52.684;9.758;2023-04-01T05:32:58;1.67;;;0.57;;
5650;SDS011;40241;52.684;9.758;2023-04-01T05:35:24;1.03;;;0.50;;
5650;SDS011;40241;52.684;9.758;2023-04-01T05:37:49;1.13;;;0.70;;
5650;SDS011;40241;52.684;9.758;2023-04-01T05:40:14;1.63;;;0.80;;
5650;SDS011;40241;52.684;9.758;2023-04-01T05:42:40;0.90;;;0.70;;
5650;SDS011;40241;52.684;9.758;2023-04-01T05:45:06;3.43;;;0.87;;
5650;SDS011;40241;52.684;9.758;2023-04-01T05:47:31;1.17;;;0.70;;
5650;SDS011;40241;52.684;9.758;2023-04-01T05:49:57;1.13;;;0.50;;
5650;SDS011;40241;52.684;9.758;2023-04-01T05:52:23;2.73;;;0.53;;
5650;SDS011;40241;52.684;9.758;2023-04-01T05:54:49;0.57;;;0.50;;
5650;SDS011;40241;52.684;9.758;2023-04-01T05:57:14;0.60;;;0.40;;
5650;SDS011;40241;52.684;9.758;2023-04-01T05:59:39;2.90;;;0.70;;
5650;SDS011;40241;52.684;9.758;2023-04-01T06:02:05;0.70;;;0.43;;
5650;SDS011;40241;52.684;9.758;2023-04-01T06:04:32;1.10;;;0.60;;
5650;SDS011;40241;52.684;9.758;2023-04-01T06:07:05;0.60;;;0.50;;
5650;SDS011;40241;52.684;9.758;2023-04-01T06:09:35;1.17;;;0.70;;
5650;SDS011;40241;52.684;9.758;2023-04-01T06:20:08;0.60;;;0.50;;
5650;SDS011;40241;52.684;9.758;2023-04-01T06:31:20;2.30;;;0.87;;
5650;SDS011;40241;52.684;9.758;2023-04-01T06:39:40;0.90;;;0.50;;
5650;SDS011;40241;52.684;9.758;2023-04-01T06:44:49;0.50;;;0.50;;
5650;SDS011;40241;52.684;9.758;2023-04-01T06:58:11;1.90;;;0.60;;
5650;SDS011;40241;52.684;9.758;2023-04-01T07:00:44;0.87;;;0.77;;
5650;SDS011;40241;52.684;9.758;2023-04-01T07:03:18;0.77;;;0.60;;
5650;SDS011;40241;52.684;9.758;2023-04-01T07:05:59;1.40;;;0.87;;
5650;SDS011;40241;52.684;9.758;2023-04-01T07:08:36;1.47;;;0.70;;
5650;SDS011;40241;52.684;9.758;2023-04-01T07:11:22;0.80;;;0.80;;
5650;SDS011;40241;52.684;9.758;2023-04-01T07:13:55;1.63;;;0.67;;
5650;SDS011;40241;52.684;9.758;2023-04-01T07:16:38;0.70;;;0.70;;
5650;SDS011;40241;52.684;9.758;2023-04-01T07:19:10;1.67;;;0.67;;
5650;SDS011;40241;52.684;9.758;2023-04-01T07:21:43;1.33;;;0.77;;
5650;SDS011;40241;52.684;9.758;2023-04-01T07:24:16;1.87;;;1.30;;
5650;SDS011;40241;52.684;9.758;2023-04-01T07:26:54;0.93;;;0.80;;
5650;SDS011;40241;52.684;9.758;2023-04-01T07:29:21;1.20;;;1.00;;
5650;SDS011;40241;52.684;9.758;2023-04-01T07:37:10;1.30;;;1.00;;
5650;SDS011;40241;52.684;9.758;2023-04-01T07:39:43;1.60;;;1.50;;
5650;SDS011;40241;52.684;9.758;2023-04-01T07:45:23;2.17;;;1.07;;
5650;SDS011;40241;52.684;9.758;2023-04-01T07:50:27;1.43;;;0.90;;
5650;SDS011;40241;52.684;9.758;2023-04-01T07:58:41;1.67;;;1.00;;
5650;SDS011;40241;52.684;9.758;2023-04-01T08:01:17;1.73;;;1.20;;
5650;SDS011;40241;52.684;9.758;2023-04-01T08:22:27;1.90;;;1.27;;
5650;SDS011;40241;52.684;9.758;2023-04-01T08:24:57;1.50;;;0.97;;
5650;SDS011;40241;52.684;9.758;2023-04-01T08:32:47;2.80;;;1.30;;
5650;SDS011;40241;52.684;9.758;2023-04-01T08:35:37;1.17;;;0.80;;
5650;SDS011;40241;52.684;9.758;2023-04-01T08:38:10;7.60;;;1.20;;
5650;SDS011;40241;52.684;9.758;2023-04-01T08:40:46;1.00;;;0.77;;
5650;SDS011;40241;52.684;9.758;2023-04-01T08:43:29;1.37;;;0.90;;
5650;SDS011;40241;52.684;9.758;2023-04-01T08:46:18;0.70;;;0.70;;
5650;SDS011;40241;52.684;9.758;2023-04-01T08:49:12;2.70;;;0.90;;
5650;SDS011;40241;52.684;9.758;2023-04-01T08:57:20;2.17;;;0.90;;
5650;SDS011;40241;52.684;9.758;2023-04-01T09:16:29;1.53;;;0.83;;
5650;SDS011;40241;52.684;9.758;2023-04-01T09:27:44;0.77;;;0.60;;
5650;SDS011;40241;52.684;9.758;2023-04-01T09:32:52;0.60;;;0.50;;
5650;SDS011;40241;52.684;9.758;2023-04-01T09:35:38;0.87;;;0.50;;
5650;SDS011;40241;52.684;9.758;2023-04-01T09:38:21;1.00;;;0.63;;
5650;SDS011;40241;52.684;9.758;2023-04-01T09:42:06;0.83;;;0.50;;
5650;SDS011;40241;52.684;9.758;2023-04-01T10:12:00;6.83;;;0.93;;
5650;SDS011;40241;52.684;9.758;2023-04-01T10:17:08;2.50;;;1.10;;
5650;SDS011;40241;52.684;9.758;2023-04-01T10:25:51;1.20;;;0.80;;
5650;SDS011;40241;52.684;9.758;2023-04-01T10:34:05;1.00;;;0.77;;
5650;SDS011;40241;52.684;9.758;2023-04-01T10:36:50;3.30;;;0.90;;
5650;SDS011;40241;52.684;9.758;2023-04-01T10:47:56;0.77;;;0.50;;
5650;SDS011;40241;52.684;9.758;2023-04-01T11:04:48;0.70;;;0.50;;
5650;SDS011;40241;52.684;9.758;2023-04-01T11:32:53;0.70;;;0.40;;
5650;SDS011;40241;52.684;9.758;2023-04-01T11:35:25;0.60;;;0.50;;
5650;SDS011;40241;52.684;9.758;2023-04-01T11:38:17;1.70;;;0.60;;
5650;SDS011;40241;52.684;9.758;2023-04-01T11:40:51;0.50;;;0.40;;
5650;SDS011;40241;52.684;9.758;2023-04-01T11:43:29;0.90;;;0.60;;
5650;SDS011;40241;52.684;9.758;2023-04-01T11:52:10;0.50;;;0.50;;
5650;SDS011;40241;52.684;9.758;2023-04-01T11:57:46;0.57;;;0.50;;
5650;SDS011;40241;52.684;9.758;2023-04-01T12:20:26;0.60;;;0.50;;
5650;SDS011;40241;52.684;9.758;2023-04-01T12:23:09;0.87;;;0.40;;
5650;SDS011;40241;52.684;9.758;2023-04-01T12:28:41;0.47;;;0.30;;
5650;SDS011;40241;52.684;9.758;2023-04-01T12:31:24;0.40;;;0.30;;
5650;SDS011;40241;52.684;9.758;2023-04-01T12:40:03;0.50;;;0.37;;
5650;SDS011;40241;52.684;9.758;2023-04-01T12:48:15;0.60;;;0.40;;
5650;SDS011;40241;52.684;9.758;2023-04-01T13:07:25;0.70;;;0.40;;
5650;SDS011;40241;52.684;9.758;2023-04-01T13:10:20;0.50;;;0.40;;
5650;SDS011;40241;52.684;9.758;2023-04-01T13:24:09;2.37;;;2.17;;
5650;SDS011;40241;52.684;9.758;2023-04-01T13:27:05;3.20;;;2.90;;
5650;SDS011;40241;52.684;9.758;2023-04-01T13:29:43;3.13;;;2.80;;
5650;SDS011;40241;52.684;9.758;2023-04-01T13:40:33;0.60;;;0.60;;
5650;SDS011;40241;52.684;9.758;2023-04-01T13:57:19;1.00;;;1.00;;
5650;SDS011;40241;52.684;9.758;2023-04-01T14:00:06;0.60;;;0.40;;
5650;SDS011;40241;52.684;9.758;2023-04-01T14:02:49;0.50;;;0.50;;
5650;SDS011;40241;52.684;9.758;2023-04-01T14:05:26;0.40;;;0.30;;
5650;SDS011;40241;52.684;9.758;2023-04-01T14:28:32;0.50;;;0.50;;
5650;SDS011;40241;52.684;9.758;2023-04-01T14:33:46;0.63;;;0.50;;
5650;SDS011;40241;52.684;9.758;2023-04-01T14:36:38;0.50;;;0.50;;
5650;SDS011;40241;52.684;9.758;2023-04-01T14:42:19;0.50;;;0.50;;
5650;SDS011;40241;52.684;9.758;2023-04-01T14:47:53;0.50;;;0.40;;
5650;SDS011;40241;52.684;9.758;2023-04-01T14:50:30;0.50;;;0.30;;
5650;SDS011;40241;52.684;9.758;2023-04-01T14:55:53;0.40;;;0.30;;
5650;SDS011;40241;52.684;9.758;2023-04-01T14:58:23;0.50;;;0.40;;
5650;SDS011;40241;52.684;9.758;2023-04-01T15:07:34;0.50;;;0.40;;
5650;SDS011;40241;52.684;9.758;2023-04-01T15:10:12;0.50;;;0.40;;
5650;SDS011;40241;52.684;9.758;2023-04-01T15:13:05;1.07;;;0.50;;
5650;SDS011;40241;52.684;9.758;2023-04-01T15:24:04;0.50;;;0.40;;
5650;SDS011;40241;52.684;9.758;2023-04-01T15:26:39;0.53;;;0.53;;
5650;SDS011;40241;52.684;9.758;2023-04-01T15:34:37;2.00;;;0.40;;
5650;SDS011;40241;52.684;9.758;2023-04-01T15:40:24;0.60;;;0.40;;
5650;SDS011;40241;52.684;9.758;2023-04-01T15:42:49;0.50;;;0.37;;
5650;SDS011;40241;52.684;9.758;2023-04-01T15:53:47;0.80;;;0.40;;
5650;SDS011;40241;52.684;9.758;2023-04-01T15:56:36;2.47;;;1.33;;
5650;SDS011;40241;52.684;9.758;2023-04-01T15:59:21;0.77;;;0.60;;
5650;SDS011;40241;52.684;9.758;2023-04-01T16:02:15;6.47;;;3.63;;
5650;SDS011;40241;52.684;9.758;2023-04-01T16:04:54;12.37;;;7.10;;
5650;SDS011;40241;52.684;9.758;2023-04-01T16:07:36;8.33;;;6.33;;
5650;SDS011;40241;52.684;9.758;2023-04-01T16:10:31;2.73;;;1.97;;
5650;SDS011;40241;52.684;9.758;2023-04-01T16:18:39;0.63;;;0.63;;
5650;SDS011;40241;52.684;9.758;2023-04-01T16:21:21;0.60;;;0.60;;
5650;SDS011;40241;52.684;9.758;2023-04-01T16:24:22;0.73;;;0.60;;
5650;SDS011;40241;52.684;9.758;2023-04-01T16:29:49;0.60;;;0.60;;
5650;SDS011;40241;52.684;9.758;2023-04-01T16:38:00;0.60;;;0.60;;
5650;SDS011;40241;52.684;9.758;2023-04-01T16:40:42;0.50;;;0.50;;
5650;SDS011;40241;52.684;9.758;2023-04-01T16:43:25;0.70;;;0.70;;
5650;SDS011;40241;52.684;9.758;2023-04-01T16:49:09;0.63;;;0.63;;
5650;SDS011;40241;52.684;9.758;2023-04-01T16:51:19;0.67;;;0.67;;
5650;SDS011;40241;52.684;9.758;2023-04-01T17:02:17;0.50;;;0.50;;
5650;SDS011;40241;52.684;9.758;2023-04-01T17:05:02;0.80;;;0.53;;
5650;SDS011;40241;52.684;9.758;2023-04-01T17:10:15;1.27;;;0.80;;
5650;SDS011;40241;52.684;9.758;2023-04-01T17:26:39;0.63;;;0.63;;
5650;SDS011;40241;52.684;9.758;2023-04-01T17:29:23;0.70;;;0.70;;
5650;SDS011;40241;52.684;9.758;2023-04-01T17:32:05;0.70;;;0.70;;
5650;SDS011;40241;52.684;9.758;2023-04-01T17:45:49;0.90;;;0.70;;
5650;SDS011;40241;52.684;9.758;2023-04-01T17:54:00;1.57;;;0.80;;
5650;SDS011;40241;52.684;9.758;2023-04-01T17:59:34;0.70;;;0.70;;
5650;SDS011;40241;52.684;9.758;2023-04-01T18:02:22;0.70;;;0.60;;
5650;SDS011;40241;52.684;9.758;2023-04-01T18:07:38;0.90;;;0.90;;
5650;SDS011;40241;52.684;9.758;2023-04-01T18:13:35;2.57;;;2.37;;
5650;SDS011;40241;52.684;9.758;2023-04-01T18:16:37;1.63;;;1.53;;
5650;SDS011;40241;52.684;9.758;2023-04-01T18:19:25;1.30;;;1.20;;
5650;SDS011;40241;52.684;9.758;2023-04-01T18:27:39;1.07;;;1.00;;
5650;SDS011;40241;52.684;9.758;2023-04-01T18:32:47;0.90;;;0.90;;
5650;SDS011;40241;52.684;9.758;2023-04-01T18:35:34;1.10;;;1.10;;
5650;SDS011;40241;52.684;9.758;2023-04-01T18:41:10;1.10;;;1.00;;
5650;SDS011;40241;52.684;9.758;2023-04-01T18:57:27;1.10;;;1.10;;
5650;SDS011;40241;52.684;9.758;2023-04-01T19:00:28;2.30;;;1.23;;
5650;SDS011;40241;52.684;9.758;2023-04-01T19:03:10;1.40;;;1.30;;
5650;SDS011;40241;52.684;9.758;2023-04-01T19:05:45;1.60;;;1.50;;
5650;SDS011;40241;52.684;9.758;2023-04-01T19:13:56;1.10;;;1.00;;
5650;SDS011;40241;52.684;9.758;2023-04-01T19:27:00;1.90;;;1.53;;
5650;SDS011;40241;52.684;9.758;2023-04-01T19:32:57;2.40;;;1.67;;
5650;SDS011;40241;52.684;9.758;2023-04-01T19:38:04;2.10;;;1.73;;
5650;SDS011;40241;52.684;9.758;2023-04-01T19:56:39;1.70;;;1.60;;
5650;SDS011;40241;52.684;9.758;2023-04-01T19:59:39;3.30;;;2.40;;
5650;SDS011;40241;52.684;9.758;2023-04-01T20:02:22;2.30;;;2.17;;
5650;SDS011;40241;52.684;9.758;2023-04-01T20:04:51;1.93;;;1.83;;
5650;SDS011;40241;52.684;9.758;2023-04-01T20:07:23;2.00;;;1.83;;
5650;SDS011;40241;52.684;9.758;2023-04-01T20:20:56;3.90;;;2.37;;
5650;SDS011;40241;52.684;9.758;2023-04-01T20:26:34;2.07;;;1.97;;
5650;SDS011;40241;52.684;9.758;2023-04-01T20:31:40;2.70;;;2.20;;
5650;SDS011;40241;52.684;9.758;2023-04-01T20:34:12;2.13;;;1.90;;
5650;SDS011;40241;52.684;9.758;2023-04-01T20:36:58;2.00;;;1.90;;
5650;SDS011;40241;52.684;9.758;2023-04-01T20:45:41;2.77;;;2.50;;
5650;SDS011;40241;52.684;9.758;2023-04-01T20:51:23;4.77;;;2.63;;
5650;SDS011;40241;52.684;9.758;2023-04-01T21:00:16;4.47;;;2.57;;
5650;SDS011;40241;52.684;9.758;2023-04-01T21:05:33;5.33;;;2.30;;
5650;SDS011;40241;52.684;9.758;2023-04-01T21:11:16;6.13;;;3.03;;
5650;SDS011;40241;52.684;9.758;2023-04-01T21:19:22;2.40;;;2.10;;
5650;SDS011;40241;52.684;9.758;2023-04-01T21:38:15;6.67;;;4.20;;
5650;SDS011;40241;52.684;9.758;2023-04-01T21:41:02;4.20;;;3.50;;
5650;SDS011;40241;52.684;9.758;2023-04-01T21:43:39;5.47;;;3.40;;
5650;SDS011;40241;52.684;9.758;2023-04-01T22:07:37;4.43;;;2.80;;
5650;SDS011;40241;52.684;9.758;2023-04-01T22:12:54;5.37;;;2.50;;
5650;SDS011;40241;52.684;9.758;2023-04-01T22:15:53;3.43;;;2.47;;
5650;SDS011;40241;52.684;9.758;2023-04-01T22:18:32;4.30;;;2.83;;
5650;SDS011;40241;52.684;9.758;2023-04-01T22:26:22;3.60;;;2.40;;
5650;SDS011;40241;52.684;9.758;2023-04-01T22:31:32;2.60;;;2.40;;
5650;SDS011;40241;52.684;9.758;2023-04-01T22:34:12;5.60;;;3.37;;
5650;SDS011;40241;52.684;9.758;2023-04-01T22:36:51;4.00;;;2.67;;
5650;SDS011;40241;52.684;9.758;2023-04-01T22:42:40;4.87;;;2.40;;
5650;SDS011;40241;52.684;9.758;2023-04-01T22:48:18;1.87;;;1.63;;
5650;SDS011;40241;52.684;9.758;2023-04-01T22:50:59;3.10;;;2.43;;
5650;SDS011;40241;52.684;9.758;2023-04-01T22:53:52;4.90;;;3.00;;
5650;SDS011;40241;52.684;9.758;2023-04-01T22:56:33;2.70;;;1.73;;
5650;SDS011;40241;52.684;9.758;2023-04-01T23:02:30;6.87;;;2.20;;
5650;SDS011;40241;52.684;9.758;2023-04-01T23:04:47;4.30;;;2.23;;
5650;SDS011;40241;52.684;9.758;2023-04-01T23:10:38;6.03;;;2.33;;
5650;SDS011;40241;52.684;9.758;2023-04-01T23:13:12;2.33;;;1.47;;
5650;SDS011;40241;52.684;9.758;2023-04-01T23:15:58;3.70;;;2.10;;
5650;SDS011;40241;52.684;9.758;2023-04-01T23:18:25;4.00;;;1.87;;
5650;SDS011;40241;52.684;9.758;2023-04-01T23:21:13;2.87;;;1.60;;
5650;SDS011;40241;52.684;9.758;2023-04-01T23:29:14;2.70;;;1.80;;
5650;SDS011;40241;52.684;9.758;2023-04-01T23:31:43;2.07;;;1.87;;
5650;SDS011;40241;52.684;9.758;2023-04-01T23:36:39;4.60;;;1.90;;
5650;SDS011;40241;52.684;9.758;2023-04-01T23:39:21;2.37;;;2.10;;
5650;SDS011;40241;52.684;9.758;2023-04-01T23:41:51;2.10;;;2.00;;
5650;SDS011;40241;52.684;9.758;2023-04-01T23:44:19;7.97;;;2.57;;
5650;SDS011;40241;52.684;9.758;2023-04-01T23:46:46;2.27;;;2.07;;
5650;SDS011;40241;52.684;9.758;2023-04-01T23:49:23;1.97;;;1.80;;
5650;SDS011;40241;52.684;9.758;2023-04-01T23:51:58;3.77;;;2.00;;
5650;SDS011;40241;52.684;9.758;2023-04-01T23:54:39;3.07;;;1.80;;
5650;SDS011;40241;52.684;9.758;2023-04-01T23:57:16;2.40;;;1.83;;
5650;SDS011;40241;52.684;9.758;2023-04-01T23:59:43;2.10;;;1.50;;
